OKBK METAR : OKBK 260200Z 26005KT CAVOK 25/02 Q1008 NOSIG